Flight Track Log - Related Links

Times and Time Zones

All times are in EDT time to prevent confusion due to time zone crossing. See the N45NS flight status page for this flight to view local times or setup timezone preferences in your user account.

Time Position Orientation Groundspeed Altitude Reporting Facility
EDT Latitude Longitude Course Direction KTS MPH feet Rate Location/Type
Tue 04:55:22 PM 42.9419 -97.0328 95° East 235 270 9,200  Level Minneapolis Center
Tue 04:56:24 PM 42.9353 -96.9311 95° East 251 289 12,900 2,903 Climbing Minneapolis Center
Tue 04:57:26 PM 42.9275 -96.8125 95° East 299 344 15,200 2,274 Climbing Minneapolis Center
Tue 04:58:28 PM 42.9183 -96.6861 96° East 328 377 17,600 2,476 Climbing Minneapolis Center
Tue 04:59:32 PM 42.9067 -96.5250 96° East 353 406 20,400 2,524 Climbing Minneapolis Center
Tue 05:00:34 PM 42.8972 -96.3853 95° East 366 421 22,900 2,146 Climbing Minneapolis Center
Tue 05:01:35 PM 42.8856 -96.2411 96° East 381 438 24,800 1,805 Climbing Minneapolis Center
Tue 05:02:37 PM 42.8750 -96.0908 95° East 394 453 26,600 2,032 Climbing Minneapolis Center
Tue 05:03:39 PM 42.8628 -95.9364 96° East 404 465 29,000 2,226 Climbing Minneapolis Center
Tue 05:04:41 PM 42.8478 -95.7472 96° East 415 478 31,200 1,935 Climbing Minneapolis Center
Tue 05:05:43 PM 42.8361 -95.5878 96° East 420 483 33,000 1,512 Climbing Minneapolis Center
Tue 05:06:44 PM 42.8222 -95.4236 97° East 430 495 34,300 1,415 Climbing Minneapolis Center
Tue 05:07:46 PM 42.8081 -95.2561 97° East 439 505 35,900 1,452 Climbing Minneapolis Center
Tue 05:08:48 PM 42.7944 -95.0903 96° East 441 507 37,300 1,306 Climbing Minneapolis Center
Tue 05:09:50 PM 42.7806 -94.9297 97° East 435 501 38,600 1,073 Climbing Minneapolis Center
Tue 05:10:51 PM 42.7642 -94.7392 97° East 430 495 39,500 829 Climbing Minneapolis Center
Tue 05:11:53 PM 42.7506 -94.5775 96° East 430 495 40,300 726 Climbing Minneapolis Center
Tue 05:12:55 PM 42.7344 -94.4072 97° East 430 495 41,000 339 Climbing Minneapolis Center
Tue 05:13:57 PM 42.7189 -94.2428 97° East 434 499 41,000  Level Minneapolis Center
Tue 05:14:58 PM 42.7028 -94.0708 97° East 457 526 41,000  Level Minneapolis Center
Tue 05:16:00 PM 42.6856 -93.8967 98° East 464 534 41,000  Level Minneapolis Center
Tue 05:17:02 PM 42.6692 -93.7175 97° East 477 549 41,000  Level Minneapolis Center
Tue 05:18:03 PM 42.6522 -93.5372 97° East 483 556 41,000  Level Minneapolis Center
Tue 05:19:05 PM 42.6308 -93.3183 97° East 487 560 41,000  Level Minneapolis Center
Tue 05:20:07 PM 42.6117 -93.1364 98° East 490 564 41,000  Level Minneapolis Center
Tue 05:20:47 PM 42.5992 -93.0261 99° East 491 565 41,000  Level Chicago Center
Tue 05:21:49 PM 42.5811 -92.8456 98° East 490 564 41,000  Level Chicago Center
Tue 05:22:51 PM 42.5589 -92.6633 99° East 492 566 41,000  Level Chicago Center
Tue 05:23:53 PM 42.5386 -92.4464 97° East 493 567 41,000  Level Chicago Center
Tue 05:24:55 PM 42.5186 -92.2656 98° East 492 566 41,000  Level Chicago Center
Tue 05:25:57 PM 42.4986 -92.0839 98° East 494 568 41,000  Level Chicago Center
Tue 05:26:59 PM 42.4792 -91.9028 98° East 494 568 41,000  Level Chicago Center
Tue 05:28:02 PM 42.4542 -91.6867 99° East 494 568 41,000  Level Chicago Center
Tue 05:29:03 PM 42.4333 -91.5069 99° East 494 568 41,000  Level Chicago Center
Tue 05:30:05 PM 42.4125 -91.3269 99° East 492 566 41,000  Level Chicago Center
Tue 05:31:08 PM 42.3897 -91.1478 100° East 490 564 41,000  Level Chicago Center
Tue 05:32:10 PM 42.3631 -90.9303 99° East 494 568 41,000  Level Chicago Center
Tue 05:33:12 PM 42.3414 -90.7458 99° East 499 574 41,000  Level Chicago Center
Tue 05:34:14 PM 42.3189 -90.5625 99° East 499 574 41,000  Level Chicago Center
Tue 05:35:16 PM 42.2964 -90.3811 99° East 498 573 41,000  Level Chicago Center
Tue 05:36:18 PM 42.2717 -90.2006 100° East 495 570 41,000  Level Chicago Center
Tue 05:37:20 PM 42.2439 -89.9817 100° East 497 572 41,000  Level Chicago Center
Tue 05:38:22 PM 42.2197 -89.7983 100° East 493 567 41,000  Level Chicago Center
Tue 05:39:24 PM 42.1958 -89.6172 100° East 492 566 41,000  Level Chicago Center
Tue 05:40:26 PM 42.1706 -89.4317 100° East 499 574 41,000  Level Chicago Center
Tue 05:41:28 PM 42.1458 -89.2511 100° East 496 571 41,000  Level Chicago Center
Tue 05:42:30 PM 42.1156 -89.0319 100° East 497 572 41,000  Level Chicago Center
Tue 05:43:32 PM 42.0897 -88.8500 101° East 498 573 41,000  Level Chicago Center
Tue 05:44:34 PM 42.0622 -88.6564 101° East 498 573 41,000  Level Chicago Center
Tue 05:45:36 PM 42.0364 -88.4722 101° East 498 573 41,000  Level Chicago Center
Tue 05:46:38 PM 42.0094 -88.2894 101° East 498 573 41,000  Level Chicago Center
Tue 05:47:40 PM 41.9819 -88.1047 101° East 499 574 41,000  Level Chicago Center
Tue 05:48:42 PM 41.9544 -87.9206 101° East 501 577 41,000  Level Chicago Center
Tue 05:49:45 PM 41.9261 -87.7342 101° East 505 581 41,000  Level Chicago Center
Tue 05:50:47 PM 41.8978 -87.5494 102° East 504 580 41,000  Level Chicago Center
Tue 05:51:49 PM 41.8619 -87.3253 102° East 511 588 41,000  Level Chicago Center
Tue 05:52:51 PM 41.8331 -87.1417 102° East 506 582 41,000  Level Chicago Center
Tue 05:53:53 PM 41.8047 -86.9581 102° East 503 579 41,000  Level Chicago Center
Tue 05:54:55 PM 41.7744 -86.7744 102° East 504 580 41,000 -726 Level Chicago Center
Tue 05:55:57 PM 41.7431 -86.5736 102° East 503 579 39,500 -1,452 Descending Chicago Center
Tue 05:56:59 PM 41.7128 -86.3911 102° East 504 580 38,000 -1,452 Descending Chicago Center
Tue 05:58:01 PM 41.6839 -86.2156 102° East 487 560 36,500 -1,694 Descending Chicago Center
Tue 05:59:03 PM 41.6542 -86.0403 103° East 485 558 34,500 -2,160 Descending Chicago Center
Tue 06:00:06 PM 41.6244 -85.8606 102° East 495 570 32,000 -2,544 Descending Chicago Center
Tue 06:01:08 PM 41.5881 -85.6492 103° East 490 564 29,200 -1,452 Descending Chicago Center
Tue 06:02:10 PM 41.5575 -85.4817 104° East 491 565 29,000 -97 Descending Chicago Center
Tue 06:03:12 PM 41.5300 -85.3044 102° East 492 566 29,000  Level Chicago Center
Tue 06:04:14 PM 41.4917 -85.0889 103° East 502 578 29,000  Level Chicago Center
Tue 06:06:23 PM 41.4278 -84.7358 103° East 494 568 29,000  Level Cleveland Center
Tue 06:07:25 PM 41.3958 -84.5586 103° East 493 567 29,000 -605 Level Cleveland Center
Tue 06:08:22 PM 41.3639 -84.3800 103° East 497 572 27,800 -1,361 Descending Chicago Center
Tue 06:09:24 PM 41.3317 -84.2067 104° East 487 560 26,300 -1,824 Descending Chicago Center
Tue 06:10:27 PM 41.2956 -84.0097 104° East 462 532 24,000 -2,000 Descending Chicago Center
Tue 06:11:33 PM 41.2619 -83.8381 105° East 465 535 22,000 -1,828 Descending Cleveland Center
Tue 06:12:35 PM 41.2314 -83.6728 104° East 467 537 20,100 -1,452 Descending Cleveland Center
Tue 06:13:37 PM 41.2003 -83.5103 104° East 463 533 19,000 -1,548 Descending Cleveland Center
Tue 06:14:39 PM 41.1644 -83.3297 105° East 430 495 16,900 -2,032 Descending Cleveland Center
Tue 06:15:41 PM 41.1350 -83.1781 104° East 429 494 14,800 -2,032 Descending Cleveland Center
Tue 06:16:43 PM 41.1053 -83.0247 104° East 396 456 12,700 -1,968 Descending Cleveland Center
Tue 06:17:46 PM 41.0778 -82.8911 105° East 377 434 10,700 -1,728 Descending Cleveland Center
Tue 06:18:48 PM 41.0558 -82.7753 104° East 331 381 9,100 -871 Descending Cleveland Center
Tue 06:19:50 PM 41.0325 -82.6625 105° East 318 366 8,900 -1,065 Descending Cleveland Center
Tue 06:20:52 PM 41.0111 -82.5536 105° East 310 357 6,900 -1,984 Descending Cleveland Center
Tue 06:21:54 PM 40.9906 -82.4525 105° East 289 333 4,800 -1,839 Descending Cleveland Center
Tue 06:22:56 PM 40.9717 -82.3567 105° East 278 320 3,100 -823 Descending Cleveland Center
Tue 06:23:58 PM 40.9489 -82.2472 105° East 269 310 3,100  Level Cleveland Center
Tue 06:25:00 PM 40.9281 -82.1542 106° East 268 308 3,100 -48 Level Cleveland Center
Tue 06:26:02 PM 40.8989 -82.0761 116° Southeast 248 285 3,000 -48 Descending Cleveland Center
Tue 06:27:05 PM 40.8714 -82.0003 116° Southeast 237 273 3,000  Level Cleveland Center

Login

Don't have an account? Register now (free) for customized features, flight alerts, and more!